Adams City, Colorado
Current Conditions -  °F | °C
As of 10:53 AM on Sunday 21 Dec 2014 (Local Time) from KDEN Reporting Station
Broken Clouds Broken Clouds  
Wind Chill:   Ceiling: 18000
Heat Index:   Visibility: 10mi
Dew Point: -7°   Wind: 12mph
Humidity: 31%   Direction: 210°SSW
Pressure: 29.62"   Gusts: NA
Location:  39.8641°N, 104.821°W
Report Text: KDEN 211753Z 21010KT 10SM SCT090 BKN180 09/M07 A2962 RMK AO2 SLP008 SHSN OMTNS W T00941072 10094 21033 58018
Loading
Personal Weather Stations






























Interactive Weather Map New forecast layout! Learn more

10-Day Weather Forecast

Advertisements
Track Severe Weather on mobile